Time;durP1;ratioP1;P1;durP2;ratioP2;P2;SDS_P1;SDS_P2;PMS_P1;PMS_P2;Temp;Humidity;BMP_temperature;BMP_pressure;BME280_temperature;BME280_humidity;BME280_pressure;Samples;Min_cycle;Max_cycle;Signal;HPM_P1;HPM_P2
2021/07/14 00:01:20;;;;;;;16.83;15.23;;;25.10;99.90;;;;;;5052263;28;20953;-54
2021/07/14 00:03:46;;;;;;;16.33;14.83;;;24.80;99.90;;;;;;5052272;28;20435;-54
2021/07/14 00:06:13;;;;;;;16.97;15.57;;;25.00;99.90;;;;;;5052376;28;20457;-53
2021/07/14 00:08:39;;;;;;;17.97;16.33;;;24.80;99.90;;;;;;5051847;28;20823;-54
2021/07/14 00:11:07;;;;;;;17.50;15.80;;;24.80;99.90;;;;;;5052351;28;20815;-53
2021/07/14 00:13:36;;;;;;;16.27;14.97;;;24.70;99.90;;;;;;5052360;28;20712;-53
2021/07/14 00:24:19;;;;;;;17.40;15.90;;;24.60;99.90;;;;;;5052105;28;20474;-53
2021/07/14 00:26:47;;;;;;;17.07;15.60;;;24.50;99.90;;;;;;5052046;28;20446;-54
2021/07/14 00:29:15;;;;;;;17.23;15.63;;;24.50;99.90;;;;;;5051538;28;20458;-53
2021/07/14 00:31:41;;;;;;;17.27;15.80;;;24.50;99.90;;;;;;5051840;28;20510;-53
2021/07/14 00:34:08;;;;;;;18.40;16.87;;;24.20;99.90;;;;;;5051878;28;20542;-53
2021/07/14 00:36:35;;;;;;;18.20;16.60;;;24.20;99.90;;;;;;5051823;28;20923;-53
2021/07/14 00:39:02;;;;;;;18.00;16.40;;;24.20;99.90;;;;;;5051339;28;20563;-53
2021/07/14 00:41:29;;;;;;;19.07;17.20;;;24.10;99.90;;;;;;5051862;28;20818;-53
2021/07/14 00:43:57;;;;;;;18.07;16.53;;;24.10;99.90;;;;;;5051609;28;20438;-54
2021/07/14 00:46:25;;;;;;;19.77;17.67;;;24.00;99.90;;;;;;5053032;28;20438;-53
2021/07/14 00:48:53;;;;;;;17.00;15.30;;;24.00;99.90;;;;;;5050983;28;20450;-53
2021/07/14 00:51:21;;;;;;;18.23;16.63;;;24.00;99.90;;;;;;5051469;28;20445;-53
2021/07/14 00:53:48;;;;;;;18.20;16.67;;;24.00;99.90;;;;;;5051461;28;20434;-53
2021/07/14 00:56:14;;;;;;;17.97;16.47;;;23.90;99.90;;;;;;5051448;28;20434;-53
2021/07/14 00:58:41;;;;;;;16.53;15.13;;;23.90;99.90;;;;;;5050798;28;20489;-54
2021/07/14 01:01:09;;;;;;;16.33;14.83;;;23.90;99.90;;;;;;5050990;28;20430;-53
2021/07/14 01:03:41;;;;;;;16.50;14.93;;;23.90;99.90;;;;;;5051239;28;20445;-53
2021/07/14 01:06:16;;;;;;;18.17;16.40;;;23.90;99.90;;;;;;5051356;28;20437;-53
2021/07/14 01:08:48;;;;;;;18.03;16.53;;;23.90;99.90;;;;;;5050882;28;20806;-53
2021/07/14 01:11:18;;;;;;;17.40;15.90;;;23.90;99.90;;;;;;5051192;28;20436;-53
2021/07/14 01:13:52;;;;;;;18.37;16.47;;;23.90;99.90;;;;;;5051624;28;20453;-54
2021/07/14 01:16:24;;;;;;;17.23;15.73;;;23.90;99.90;;;;;;5051227;28;20528;-53
2021/07/14 01:18:55;;;;;;;20.40;17.27;;;23.80;99.90;;;;;;5050694;28;20481;-53
2021/07/14 01:21:28;;;;;;;18.23;16.53;;;23.80;99.90;;;;;;5051199;28;20443;-53
2021/07/14 01:24:06;;;;;;;18.70;17.00;;;23.70;99.90;;;;;;5051191;28;20533;-54
2021/07/14 01:26:42;;;;;;;18.30;16.43;;;23.70;99.90;;;;;;5051146;28;20461;-53
2021/07/14 01:29:11;;;;;;;18.33;16.73;;;23.70;99.90;;;;;;5050730;28;20461;-53
2021/07/14 01:31:40;;;;;;;20.43;16.40;;;23.70;99.90;;;;;;5050860;28;20500;-53
2021/07/14 01:34:11;;;;;;;19.37;17.63;;;23.60;99.90;;;;;;5050968;28;20441;-53
2021/07/14 01:36:39;;;;;;;17.90;16.10;;;23.60;99.90;;;;;;5050993;28;20441;-53
2021/07/14 01:39:07;;;;;;;19.07;17.30;;;23.60;99.90;;;;;;5050476;28;20970;-53
2021/07/14 01:41:37;;;;;;;18.93;17.30;;;23.60;99.90;;;;;;5050874;28;20455;-53
2021/07/14 01:44:05;;;;;;;20.23;18.33;;;23.70;99.90;;;;;;5050917;28;20433;-54
2021/07/14 01:46:37;;;;;;;20.10;18.30;;;23.60;99.90;;;;;;5050843;28;20941;-53
2021/07/14 01:49:08;;;;;;;20.10;18.20;;;23.60;99.90;;;;;;5050425;28;20469;-53
2021/07/14 01:51:40;;;;;;;19.83;18.00;;;23.50;99.90;;;;;;5050887;28;20440;-54
2021/07/14 01:54:08;;;;;;;19.80;18.10;;;23.50;99.90;;;;;;5051113;28;20816;-53
2021/07/14 01:56:38;;;;;;;19.10;17.30;;;23.40;99.90;;;;;;5050945;28;20441;-53
2021/07/14 01:59:06;;;;;;;20.37;18.57;;;23.00;99.90;;;;;;5051750;28;20481;-53
2021/07/14 02:01:38;;;;;;;21.20;19.30;;;23.40;99.90;;;;;;5050761;28;20930;-54
2021/07/14 02:06:50;;;;;;;22.30;20.30;;;23.30;99.90;;;;;;5050716;28;20916;-53
2021/07/14 02:09:18;;;;;;;22.27;20.37;;;23.20;99.90;;;;;;5050332;28;20476;-53
2021/07/14 02:11:47;;;;;;;21.97;19.97;;;23.20;99.90;;;;;;5050694;28;20460;-53
2021/07/14 02:14:17;;;;;;;22.73;20.33;;;23.10;99.90;;;;;;5053648;28;20441;-53
2021/07/14 02:16:47;;;;;;;22.47;20.67;;;23.10;99.90;;;;;;5054492;28;20960;-53
2021/07/14 02:19:16;;;;;;;20.70;18.67;;;23.10;99.90;;;;;;5053904;28;20484;-53
2021/07/14 02:21:43;;;;;;;22.40;20.23;;;23.10;99.90;;;;;;5054458;28;20428;-53
2021/07/14 02:24:12;;;;;;;22.50;20.50;;;23.10;99.90;;;;;;5054382;28;20929;-53
2021/07/14 02:26:40;;;;;;;21.40;19.30;;;23.00;99.90;;;;;;5054217;28;20441;-53
2021/07/14 02:29:07;;;;;;;21.30;18.43;;;23.00;99.90;;;;;;5053926;28;20484;-53
2021/07/14 02:31:34;;;;;;;19.33;17.80;;;23.00;99.90;;;;;;5054119;28;20929;-53
2021/07/14 02:34:02;;;;;;;20.83;18.83;;;23.00;99.90;;;;;;5054022;28;20434;-54
2021/07/14 02:36:33;;;;;;;22.50;20.10;;;23.00;99.90;;;;;;5054252;28;20445;-54
2021/07/14 02:39:03;;;;;;;21.43;19.23;;;23.00;99.90;;;;;;5053598;28;20490;-54
2021/07/14 02:41:36;;;;;;;19.63;18.00;;;23.00;99.90;;;;;;5054092;28;20516;-54
2021/07/14 02:44:07;;;;;;;21.67;19.37;;;23.00;99.90;;;;;;5054101;28;20434;-54
2021/07/14 02:46:36;;;;;;;24.77;22.17;;;23.00;99.90;;;;;;5053868;28;21030;-54
2021/07/14 02:49:07;;;;;;;23.07;20.67;;;23.00;99.90;;;;;;5053437;28;20470;-54
2021/07/14 02:51:36;;;;;;;21.43;19.33;;;23.00;99.90;;;;;;5053858;28;20439;-54
2021/07/14 02:54:05;;;;;;;21.90;19.80;;;22.90;99.90;;;;;;5035852;28;20481;-54
2021/07/14 02:56:32;;;;;;;21.93;19.93;;;23.00;99.90;;;;;;5053649;28;20448;-54
2021/07/14 02:59:03;;;;;;;22.60;20.50;;;22.90;99.90;;;;;;5051917;28;20499;-54
2021/07/14 03:01:31;;;;;;;22.00;18.33;;;22.80;99.90;;;;;;5052875;28;20429;-53
2021/07/14 03:03:59;;;;;;;20.60;18.70;;;22.90;99.90;;;;;;5053552;28;20439;-53
2021/07/14 03:06:32;;;;;;;21.30;19.13;;;22.90;99.90;;;;;;5053568;28;20492;-53
2021/07/14 03:09:03;;;;;;;20.77;19.07;;;22.90;99.90;;;;;;5053260;28;20447;-54
2021/07/14 03:11:31;;;;;;;21.07;19.27;;;22.90;99.90;;;;;;5053781;28;20515;-54
2021/07/14 03:13:58;;;;;;;20.00;18.13;;;22.90;99.90;;;;;;5055135;28;20466;-54
2021/07/14 03:16:25;;;;;;;20.77;18.60;;;22.90;99.90;;;;;;5053445;28;20811;-54
2021/07/14 03:18:52;;;;;;;21.47;18.80;;;22.90;99.90;;;;;;5052645;28;20485;-54
2021/07/14 03:21:19;;;;;;;20.90;18.90;;;22.90;99.90;;;;;;5053130;28;20428;-53
2021/07/14 03:23:48;;;;;;;20.70;18.70;;;22.90;99.90;;;;;;5052874;28;20447;-55
2021/07/14 03:26:16;;;;;;;20.93;18.93;;;22.90;99.90;;;;;;5053300;28;20955;-54
2021/07/14 03:28:43;;;;;;;21.10;18.90;;;22.80;99.90;;;;;;5052745;28;20464;-52
2021/07/14 03:31:12;;;;;;;21.07;18.80;;;22.80;99.90;;;;;;5053624;28;20437;-54
2021/07/14 03:33:39;;;;;;;20.20;18.20;;;22.80;99.90;;;;;;5052929;28;20515;-53
2021/07/14 03:36:07;;;;;;;19.10;17.27;;;22.80;99.90;;;;;;5052890;28;20436;-54
2021/07/14 03:38:35;;;;;;;21.00;19.10;;;22.80;99.90;;;;;;5052669;28;20518;-54
2021/07/14 03:41:05;;;;;;;20.73;18.77;;;22.80;99.90;;;;;;5052897;28;20432;-54
2021/07/14 03:43:32;;;;;;;20.73;18.27;;;22.80;99.90;;;;;;5052683;28;20439;-53
2021/07/14 03:46:02;;;;;;;20.13;18.23;;;23.00;99.90;;;;;;5052688;28;20436;-54
2021/07/14 03:48:30;;;;;;;19.53;17.43;;;22.80;99.90;;;;;;5052343;28;20455;-54
2021/07/14 03:50:58;;;;;;;20.73;18.53;;;22.80;99.90;;;;;;5052859;28;20437;-54
2021/07/14 03:53:25;;;;;;;22.93;18.40;;;22.70;99.90;;;;;;5052495;28;20440;-53
2021/07/14 03:55:52;;;;;;;19.80;17.70;;;22.70;99.90;;;;;;5052330;28;20436;-54
2021/07/14 03:58:22;;;;;;;19.70;18.00;;;22.70;99.90;;;;;;5051875;28;20831;-54
2021/07/14 04:00:50;;;;;;;18.37;16.60;;;22.70;99.90;;;;;;5052681;28;20830;-53
2021/07/14 04:03:21;;;;;;;17.30;15.60;;;22.70;99.90;;;;;;5052428;28;20448;-54
2021/07/14 04:05:50;;;;;;;18.63;16.70;;;22.60;99.90;;;;;;5052516;28;20514;-53
2021/07/14 04:08:20;;;;;;;18.00;16.20;;;22.70;99.90;;;;;;5051844;28;20497;-54
2021/07/14 04:10:47;;;;;;;16.87;15.10;;;22.60;99.90;;;;;;5052205;28;20511;-54
2021/07/14 04:13:14;;;;;;;18.10;16.30;;;22.60;99.90;;;;;;5034127;28;20878;-53
2021/07/14 04:15:42;;;;;;;18.43;15.47;;;22.70;99.90;;;;;;5052098;28;20435;-54
2021/07/14 04:18:11;;;;;;;15.43;14.10;;;22.70;99.90;;;;;;5051534;28;20463;-53
2021/07/14 04:20:38;;;;;;;17.77;14.70;;;22.70;99.90;;;;;;5052141;28;20989;-53
2021/07/14 04:23:05;;;;;;;13.87;12.53;;;22.70;99.90;;;;;;5051910;28;20441;-53
2021/07/14 04:25:32;;;;;;;15.47;13.80;;;22.60;99.90;;;;;;5051860;28;20431;-53
2021/07/14 04:27:58;;;;;;;16.47;14.93;;;22.70;99.90;;;;;;5051636;28;20854;-54
2021/07/14 04:30:25;;;;;;;16.70;15.03;;;22.80;99.90;;;;;;5051613;28;20434;-53
2021/07/14 04:32:53;;;;;;;20.00;13.77;;;22.80;99.90;;;;;;5051555;28;20445;-53
2021/07/14 04:35:19;;;;;;;15.80;13.80;;;22.80;99.90;;;;;;5051127;28;20928;-53
2021/07/14 04:37:49;;;;;;;15.03;13.30;;;22.80;99.90;;;;;;5051498;28;21041;-53
2021/07/14 04:40:16;;;;;;;15.47;13.90;;;22.80;99.90;;;;;;5051234;28;20478;-53
2021/07/14 04:42:43;;;;;;;17.20;13.63;;;22.70;99.90;;;;;;5051656;28;20938;-54
2021/07/14 04:45:10;;;;;;;17.83;15.97;;;22.70;99.90;;;;;;5051415;28;20438;-54
2021/07/14 04:47:36;;;;;;;17.20;14.50;;;22.70;99.90;;;;;;5033453;28;20972;-54
2021/07/14 04:50:06;;;;;;;15.87;14.27;;;22.70;99.90;;;;;;5051189;28;20528;-54
2021/07/14 04:52:32;;;;;;;23.67;17.20;;;22.70;99.90;;;;;;5051558;28;20764;-54
2021/07/14 04:54:59;;;;;;;20.00;17.40;;;22.70;99.90;;;;;;5051310;28;20487;-53
2021/07/14 04:57:26;;;;;;;21.60;17.80;;;22.70;99.90;;;;;;5051974;28;20452;-55
2021/07/14 04:59:52;;;;;;;19.77;16.47;;;22.60;99.90;;;;;;5050821;28;20484;-55
2021/07/14 05:02:19;;;;;;;17.20;15.57;;;22.60;99.90;;;;;;5051106;28;20440;-54
2021/07/14 05:04:45;;;;;;;18.13;16.23;;;22.60;99.90;;;;;;5051364;28;20443;-54
2021/07/14 05:07:13;;;;;;;20.77;14.00;;;22.70;99.90;;;;;;5050991;28;20455;-54
2021/07/14 05:09:40;;;;;;;20.60;16.00;;;22.70;99.90;;;;;;5050876;28;20445;-55
2021/07/14 05:12:07;;;;;;;20.57;16.07;;;22.70;99.90;;;;;;5051126;28;20446;-55
2021/07/14 05:14:34;;;;;;;25.10;17.63;;;22.70;99.90;;;;;;5050975;28;20523;-55
2021/07/14 05:17:00;;;;;;;21.57;17.50;;;22.80;99.90;;;;;;5051162;28;20443;-54
2021/07/14 05:19:27;;;;;;;24.27;17.73;;;22.80;99.90;;;;;;5050517;28;20475;-55
2021/07/14 05:21:53;;;;;;;22.17;17.03;;;22.80;99.90;;;;;;5050642;28;20441;-54
2021/07/14 05:24:21;;;;;;;32.50;19.00;;;22.60;99.90;;;;;;5051130;28;20436;-54
2021/07/14 05:26:48;;;;;;;22.30;18.60;;;22.80;99.90;;;;;;5050540;28;20433;-54
2021/07/14 05:29:15;;;;;;;21.67;18.83;;;22.90;99.90;;;;;;5050528;28;20461;-54
2021/07/14 05:31:41;;;;;;;23.60;17.80;;;23.00;99.90;;;;;;5050549;28;20439;-54
2021/07/14 05:34:08;;;;;;;21.43;17.47;;;22.80;99.90;;;;;;5050790;28;20439;-54
2021/07/14 05:36:35;;;;;;;25.90;19.10;;;23.10;99.90;;;;;;5050523;28;20451;-54
2021/07/14 05:39:01;;;;;;;20.50;18.30;;;23.10;99.90;;;;;;5050188;28;20489;-55
2021/07/14 05:41:29;;;;;;;20.83;18.20;;;23.00;99.90;;;;;;5050650;28;20530;-55
2021/07/14 05:43:56;;;;;;;21.93;17.13;;;22.90;99.90;;;;;;5050711;28;20826;-55
2021/07/14 05:46:23;;;;;;;20.30;18.13;;;23.20;99.90;;;;;;5032737;28;20449;-54
2021/07/14 05:48:50;;;;;;;20.07;16.50;;;23.20;99.90;;;;;;5054452;28;20552;-55
2021/07/14 05:51:17;;;;;;;19.53;17.53;;;23.20;99.90;;;;;;5054691;28;20445;-54
2021/07/14 05:53:43;;;;;;;21.83;19.07;;;23.20;99.90;;;;;;5054424;28;20438;-55
2021/07/14 05:56:10;;;;;;;21.23;17.50;;;23.20;99.90;;;;;;5054037;28;20933;-54
2021/07/14 05:58:38;;;;;;;22.00;17.50;;;23.20;99.90;;;;;;5053803;28;20472;-55
2021/07/14 06:01:05;;;;;;;21.63;16.60;;;23.50;99.90;;;;;;5054562;28;20437;-54
2021/07/14 06:03:31;;;;;;;19.37;15.93;;;23.70;99.90;;;;;;5054514;28;20445;-55
2021/07/14 06:05:58;;;;;;;16.30;14.27;;;24.00;99.90;;;;;;5036558;28;20950;-55
2021/07/14 06:08:24;;;;;;;17.93;16.03;;;24.10;99.90;;;;;;5054027;28;20454;-54
2021/07/14 06:10:51;;;;;;;17.10;15.07;;;24.30;99.90;;;;;;5036283;28;20450;-54
2021/07/14 06:13:18;;;;;;;17.70;15.20;;;24.40;99.90;;;;;;5054491;28;20441;-54
2021/07/14 06:15:46;;;;;;;18.30;15.80;;;24.40;99.90;;;;;;5054041;28;20778;-54
2021/07/14 06:18:13;;;;;;;20.17;15.67;;;24.30;99.90;;;;;;5053622;28;20468;-55
2021/07/14 06:20:40;;;;;;;17.93;16.17;;;24.10;99.90;;;;;;5054072;28;20496;-54
2021/07/14 06:23:07;;;;;;;18.90;17.00;;;24.30;99.90;;;;;;5053936;28;20472;-54
2021/07/14 06:25:33;;;;;;;19.10;17.10;;;24.30;99.90;;;;;;5054064;28;20443;-54
2021/07/14 06:28:05;;;;;;;16.93;15.30;;;24.20;99.90;;;;;;5053649;28;20454;-54
2021/07/14 06:30:32;;;;;;;18.27;16.50;;;24.20;99.90;;;;;;5053782;28;20942;-55
2021/07/14 06:33:01;;;;;;;18.83;16.93;;;24.10;99.90;;;;;;5053698;28;20442;-55
2021/07/14 06:35:27;;;;;;;20.20;18.17;;;24.10;99.90;;;;;;5054095;28;20438;-55
2021/07/14 06:37:54;;;;;;;18.90;16.90;;;24.20;99.90;;;;;;5053454;28;20465;-55
2021/07/14 06:40:21;;;;;;;19.30;17.30;;;24.20;99.90;;;;;;5053339;28;20481;-54
2021/07/14 06:42:48;;;;;;;21.27;18.73;;;24.10;99.90;;;;;;5053568;28;20452;-55
2021/07/14 06:45:15;;;;;;;23.37;19.23;;;24.00;99.90;;;;;;5053113;28;20958;-54
2021/07/14 06:47:42;;;;;;;20.70;18.70;;;24.10;99.90;;;;;;5053331;28;20464;-54
2021/07/14 06:50:12;;;;;;;21.03;18.80;;;23.90;99.90;;;;;;5052748;28;20526;-55
2021/07/14 06:52:40;;;;;;;18.77;17.03;;;24.10;99.90;;;;;;5035166;28;20430;-55
2021/07/14 06:55:08;;;;;;;21.97;19.73;;;24.10;99.90;;;;;;5053039;28;20533;-55
2021/07/14 06:57:35;;;;;;;21.20;19.20;;;24.10;99.90;;;;;;5053092;28;20543;-55
2021/07/14 07:00:01;;;;;;;21.50;19.50;;;24.10;99.90;;;;;;5052384;28;20986;-55
2021/07/14 07:02:28;;;;;;;19.80;17.80;;;23.80;99.90;;;;;;5052919;28;20438;-54
2021/07/14 07:04:55;;;;;;;21.80;19.53;;;23.90;99.90;;;;;;5053181;28;20446;-55
2021/07/14 07:07:23;;;;;;;26.80;23.93;;;24.00;99.90;;;;;;5053024;28;20460;-54
2021/07/14 07:09:49;;;;;;;20.43;18.53;;;23.90;99.90;;;;;;5052836;28;20442;-54
2021/07/14 07:12:17;;;;;;;22.70;20.10;;;24.00;99.90;;;;;;5052381;28;20790;-55
2021/07/14 07:14:43;;;;;;;18.03;16.23;;;24.10;99.90;;;;;;5052632;28;20433;-54
2021/07/14 07:17:10;;;;;;;19.83;17.63;;;24.10;99.90;;;;;;5035024;28;20942;-55
2021/07/14 07:19:36;;;;;;;19.07;17.10;;;24.20;99.90;;;;;;5052589;28;20484;-54
2021/07/14 07:22:04;;;;;;;17.83;15.97;;;24.30;99.90;;;;;;5052539;28;20434;-54
2021/07/14 07:24:32;;;;;;;18.20;16.40;;;24.40;99.90;;;;;;5052759;28;20440;-55
2021/07/14 07:26:59;;;;;;;18.23;16.43;;;24.30;99.90;;;;;;5052382;28;20798;-55
2021/07/14 07:29:26;;;;;;;17.07;15.60;;;24.50;99.90;;;;;;5052539;28;20793;-54
2021/07/14 07:31:53;;;;;;;17.27;15.37;;;24.50;99.90;;;;;;5052838;28;20448;-54
2021/07/14 07:34:22;;;;;;;18.70;16.77;;;24.30;99.90;;;;;;5052453;28;20438;-54
2021/07/14 07:36:49;;;;;;;18.53;16.47;;;24.50;99.90;;;;;;5052588;28;20434;-55
2021/07/14 07:39:15;;;;;;;18.80;16.93;;;24.60;99.90;;;;;;5051993;28;20978;-55
2021/07/14 07:41:44;;;;;;;21.60;18.03;;;24.60;99.90;;;;;;5052351;28;20924;-55
2021/07/14 07:44:10;;;;;;;19.93;16.63;;;24.70;99.90;;;;;;5052649;28;20440;-55
2021/07/14 07:46:39;;;;;;;19.67;17.83;;;24.70;99.90;;;;;;5052301;28;20433;-54
2021/07/14 07:49:06;;;;;;;19.80;17.87;;;24.60;99.90;;;;;;5051941;28;20557;-54
2021/07/14 07:51:33;;;;;;;18.83;17.03;;;24.70;99.90;;;;;;5034195;28;20457;-55
2021/07/14 07:54:00;;;;;;;16.77;14.80;;;24.80;99.90;;;;;;5052236;28;20839;-55
2021/07/14 07:56:27;;;;;;;20.73;18.33;;;24.80;99.90;;;;;;5051964;28;20525;-54
2021/07/14 07:58:55;;;;;;;19.17;17.17;;;24.80;99.90;;;;;;5051827;28;20555;-54
2021/07/14 08:01:22;;;;;;;18.33;16.50;;;24.80;99.90;;;;;;5052260;28;20489;-55
2021/07/14 08:03:48;;;;;;;18.87;16.93;;;25.00;99.90;;;;;;5052159;28;20454;-55
2021/07/14 08:06:15;;;;;;;20.70;17.60;;;25.00;99.90;;;;;;5051830;28;20438;-54
2021/07/14 08:08:42;;;;;;;25.67;22.60;;;25.20;99.90;;;;;;5051694;28;20454;-55
2021/07/14 08:11:08;;;;;;;19.20;17.30;;;25.10;99.90;;;;;;5051526;28;20522;-55
2021/07/14 08:13:35;;;;;;;19.07;17.10;;;25.30;99.90;;;;;;5052107;28;20426;-55
2021/07/14 08:16:03;;;;;;;19.77;17.73;;;25.40;99.90;;;;;;5051910;28;20939;-55
2021/07/14 08:18:30;;;;;;;17.43;15.63;;;25.50;99.90;;;;;;5033692;28;21128;-55
2021/07/14 08:20:57;;;;;;;14.50;13.10;;;25.60;99.90;;;;;;5051998;28;20474;-55
2021/07/14 08:23:25;;;;;;;16.20;14.77;;;25.70;99.90;;;;;;5052245;28;20756;-55
2021/07/14 08:25:52;;;;;;;16.40;14.90;;;25.80;99.90;;;;;;5051954;28;20741;-55
2021/07/14 08:28:18;;;;;;;15.27;13.87;;;25.80;99.90;;;;;;5051393;28;20853;-55
2021/07/14 08:30:45;;;;;;;16.87;15.20;;;25.90;99.90;;;;;;5051877;28;20957;-55
2021/07/14 08:33:13;;;;;;;15.70;14.40;;;26.00;99.90;;;;;;5051547;28;20430;-55
2021/07/14 08:35:41;;;;;;;20.07;17.03;;;25.90;99.90;;;;;;5051736;28;20752;-55
2021/07/14 08:38:07;;;;;;;18.83;16.93;;;25.90;99.90;;;;;;5051488;28;20841;-55
2021/07/14 08:40:34;;;;;;;17.60;15.87;;;26.00;99.90;;;;;;5051713;28;20518;-55
2021/07/14 08:43:03;;;;;;;14.53;13.17;;;26.00;99.90;;;;;;5051644;28;20438;-55
2021/07/14 08:45:29;;;;;;;16.83;13.50;;;25.90;99.90;;;;;;5051537;28;20469;-55
2021/07/14 08:47:56;;;;;;;18.80;16.47;;;25.60;99.90;;;;;;5051095;28;20945;-55
2021/07/14 08:50:26;;;;;;;15.03;13.73;;;25.80;99.90;;;;;;5051312;28;20453;-54
2021/07/14 08:52:54;;;;;;;14.50;13.10;;;25.90;99.90;;;;;;5051483;28;20795;-55
2021/07/14 08:55:22;;;;;;;15.43;13.93;;;25.90;99.90;;;;;;5051209;28;20551;-55
2021/07/14 08:57:50;;;;;;;13.53;12.33;;;26.20;99.90;;;;;;5050902;28;20541;-55
2021/07/14 09:00:21;;;;;;;12.73;11.63;;;26.20;99.90;;;;;;5050675;28;21008;-55
2021/07/14 09:02:48;;;;;;;12.13;11.17;;;26.40;99.90;;;;;;5050787;28;20427;-55
2021/07/14 09:05:15;;;;;;;13.73;12.33;;;26.40;99.90;;;;;;5051051;28;20533;-55
2021/07/14 09:07:43;;;;;;;13.33;11.93;;;26.50;99.90;;;;;;5050651;28;20570;-55
2021/07/14 09:10:13;;;;;;;13.80;12.50;;;26.50;99.90;;;;;;5032355;28;20443;-55
2021/07/14 09:12:42;;;;;;;16.97;12.87;;;26.50;99.90;;;;;;5051444;28;20517;-55
2021/07/14 09:15:10;;;;;;;14.43;13.27;;;26.60;99.90;;;;;;5050919;28;20430;-54
2021/07/14 09:17:44;;;;;;;14.87;13.57;;;26.50;99.90;;;;;;5050874;28;20516;-54
2021/07/14 09:20:13;;;;;;;15.13;13.93;;;26.50;99.90;;;;;;5050265;28;20471;-54
2021/07/14 09:22:40;;;;;;;16.40;15.20;;;26.50;99.90;;;;;;5050161;28;20435;-55
2021/07/14 09:25:12;;;;;;;14.97;13.77;;;26.50;99.90;;;;;;5050674;28;20970;-55
2021/07/14 09:27:39;;;;;;;14.60;13.30;;;26.50;99.90;;;;;;5032853;28;21057;-54
2021/07/14 09:33:53;;;;;;;15.83;14.53;;;26.70;99.90;;;;;;5050929;28;20490;-55
2021/07/14 09:36:33;;;;;;;16.20;14.90;;;26.70;99.90;;;;;;5050429;28;20435;-55
2021/07/14 09:39:05;;;;;;;16.37;15.07;;;26.80;99.90;;;;;;5050180;28;20965;-55
2021/07/14 09:41:37;;;;;;;16.30;15.10;;;27.00;99.90;;;;;;5050643;28;20473;-55
2021/07/14 09:44:04;;;;;;;16.13;14.70;;;26.70;99.90;;;;;;5050425;28;20447;-55
2021/07/14 09:46:31;;;;;;;15.17;13.97;;;26.80;99.90;;;;;;5049936;28;20443;-55
2021/07/14 09:48:58;;;;;;;16.23;14.93;;;26.80;99.90;;;;;;5049836;28;20512;-55
2021/07/14 09:51:25;;;;;;;18.17;16.47;;;26.80;99.90;;;;;;5050176;28;20451;-55
2021/07/14 09:53:54;;;;;;;18.50;16.43;;;26.90;99.90;;;;;;5050114;28;20543;-55
2021/07/14 09:56:32;;;;;;;16.87;15.27;;;26.80;99.90;;;;;;5031580;28;20931;-54
2021/07/14 09:59:06;;;;;;;17.27;15.70;;;26.80;99.90;;;;;;5049744;28;20834;-55
2021/07/14 10:01:36;;;;;;;17.43;15.83;;;26.90;99.90;;;;;;5050374;28;20478;-55
2021/07/14 10:04:04;;;;;;;16.47;15.07;;;27.00;99.90;;;;;;5050282;28;20454;-55
2021/07/14 10:06:31;;;;;;;15.93;14.40;;;26.90;99.90;;;;;;5050439;28;20773;-55
2021/07/14 10:09:03;;;;;;;16.80;15.40;;;27.20;99.90;;;;;;5049919;28;20465;-55
2021/07/14 10:11:30;;;;;;;17.43;15.93;;;27.30;99.90;;;;;;5050950;28;20426;-55
2021/07/14 10:13:59;;;;;;;14.87;13.67;;;27.30;99.90;;;;;;5050122;28;20435;-55
2021/07/14 10:16:30;;;;;;;12.40;11.20;;;27.30;99.90;;;;;;5050426;28;20950;-55
2021/07/14 10:19:02;;;;;;;13.83;12.60;;;27.20;99.90;;;;;;5031502;28;20847;-55
2021/07/14 10:21:30;;;;;;;14.13;12.70;;;27.30;99.90;;;;;;5050192;28;20474;-55
2021/07/14 10:23:57;;;;;;;14.83;13.27;;;27.30;99.90;;;;;;5049783;28;20808;-55
2021/07/14 10:26:24;;;;;;;13.27;12.27;;;27.30;99.90;;;;;;5049854;28;20456;-55
2021/07/14 10:28:51;;;;;;;11.83;10.67;;;27.30;99.90;;;;;;5049803;28;20447;-55
2021/07/14 10:31:21;;;;;;;13.27;11.97;;;27.20;99.90;;;;;;5050129;28;20781;-55
2021/07/14 10:33:50;;;;;;;13.27;12.07;;;27.10;99.90;;;;;;5050782;28;20484;-55
2021/07/14 10:36:18;;;;;;;13.27;11.90;;;27.20;99.90;;;;;;5053714;28;20804;-55
2021/07/14 10:38:49;;;;;;;15.50;14.00;;;27.20;99.90;;;;;;5053314;28;20457;-54
2021/07/14 10:41:16;;;;;;;13.03;11.83;;;27.30;99.90;;;;;;5053717;28;20484;-55
2021/07/14 10:43:47;;;;;;;13.23;11.83;;;27.30;99.90;;;;;;5053143;28;20442;-55
2021/07/14 10:46:15;;;;;;;13.00;11.63;;;27.30;99.90;;;;;;5053176;28;20441;-54
2021/07/14 10:48:43;;;;;;;11.77;10.50;;;27.30;99.90;;;;;;5052490;28;20455;-54
2021/07/14 10:51:12;;;;;;;21.53;10.97;;;27.40;99.90;;;;;;5053015;28;20469;-55
2021/07/14 10:53:40;;;;;;;21.30;17.20;;;27.40;99.90;;;;;;5052980;28;20437;-55
2021/07/14 10:56:08;;;;;;;12.97;11.87;;;27.40;99.90;;;;;;5053042;28;20473;-55
2021/07/14 10:58:35;;;;;;;10.93;10.13;;;27.50;99.90;;;;;;5053090;28;20449;-54
2021/07/14 11:01:02;;;;;;;9.93;9.03;;;27.50;99.90;;;;;;5053264;28;20466;-53
2021/07/14 11:03:46;;;;;;;10.23;9.30;;;27.50;99.90;;;;;;5053320;28;20442;-53
2021/07/14 11:06:16;;;;;;;14.10;10.30;;;27.60;99.90;;;;;;5053770;28;20435;-53
2021/07/14 11:08:46;;;;;;;12.33;9.93;;;27.60;99.90;;;;;;5052497;28;20457;-53
2021/07/14 11:11:15;;;;;;;12.93;11.63;;;27.80;99.80;;;;;;5052915;28;20469;-54
2021/07/14 11:13:42;;;;;;;10.33;7.97;;;27.80;99.60;;;;;;5052808;28;20819;-54
2021/07/14 11:16:29;;;;;;;12.90;9.33;;;27.90;99.40;;;;;;5052849;28;20794;-54
2021/07/14 11:19:04;;;;;;;9.47;8.57;;;28.00;99.20;;;;;;5052448;28;20454;-54
2021/07/14 11:21:54;;;;;;;8.57;7.80;;;28.00;99.20;;;;;;5052338;28;20478;-54
2021/07/14 11:24:56;;;;;;;8.57;7.77;;;28.10;98.80;;;;;;5052638;28;20430;-54
2021/07/14 11:28:00;;;;;;;10.43;9.43;;;28.10;98.70;;;;;;5052171;28;20645;-54
2021/07/14 11:30:34;;;;;;;7.87;6.90;;;28.10;98.70;;;;;;5052375;28;20441;-53
2021/07/14 11:33:03;;;;;;;7.40;6.80;;;27.60;98.50;;;;;;5052516;28;20718;-54
2021/07/14 11:35:45;;;;;;;11.47;7.07;;;28.10;98.50;;;;;;5052254;28;20438;-53
2021/07/14 11:38:26;;;;;;;8.63;7.83;;;28.10;98.00;;;;;;5051987;28;20802;-53
2021/07/14 11:40:55;;;;;;;10.10;7.20;;;28.20;97.80;;;;;;5052094;28;20481;-53
2021/07/14 11:43:40;;;;;;;8.90;7.03;;;28.20;97.90;;;;;;5052121;28;20434;-54
2021/07/14 11:46:10;;;;;;;6.63;5.90;;;28.30;97.70;;;;;;5052304;28;20438;-54
2021/07/14 11:48:38;;;;;;;8.40;6.30;;;28.40;97.40;;;;;;5051699;28;20458;-54
2021/07/14 11:51:08;;;;;;;8.40;6.60;;;28.40;97.30;;;;;;5052096;28;20962;-54
2021/07/14 11:53:42;;;;;;;7.67;6.03;;;28.40;97.20;;;;;;5052067;28;20519;-54
2021/07/14 11:56:14;;;;;;;8.10;7.30;;;28.50;97.40;;;;;;5051774;28;20435;-53
2021/07/14 11:59:06;;;;;;;7.13;6.37;;;28.60;97.70;;;;;;5051478;28;20474;-53
2021/07/14 12:02:02;;;;;;;11.90;7.23;;;28.70;97.20;;;;;;5051935;28;20479;-53
2021/07/14 12:04:34;;;;;;;6.90;6.33;;;28.80;97.10;;;;;;5051605;28;20455;-54
2021/07/14 12:07:04;;;;;;;7.70;7.00;;;28.80;97.10;;;;;;5051796;28;20465;-54
2021/07/14 12:09:38;;;;;;;7.27;6.53;;;28.80;97.30;;;;;;5051272;28;20438;-54
2021/07/14 12:12:08;;;;;;;7.00;6.50;;;28.80;96.80;;;;;;5033874;28;20450;-54
2021/07/14 12:14:37;;;;;;;8.33;7.53;;;28.80;96.50;;;;;;5051892;28;20900;-54
2021/07/14 12:17:06;;;;;;;7.67;6.90;;;28.80;96.60;;;;;;5051666;28;20439;-54
2021/07/14 12:19:35;;;;;;;7.57;6.50;;;28.80;96.50;;;;;;5051454;28;20759;-55
2021/07/14 12:22:08;;;;;;;8.50;6.10;;;29.00;96.40;;;;;;5051611;28;20549;-54
2021/07/14 12:24:41;;;;;;;6.03;5.43;;;29.10;95.90;;;;;;5050793;28;20431;-54
2021/07/14 12:27:12;;;;;;;7.07;6.47;;;29.20;95.60;;;;;;5051043;28;20442;-54
2021/07/14 12:29:40;;;;;;;7.63;6.83;;;29.30;95.50;;;;;;5051029;28;20458;-54
2021/07/14 12:32:07;;;;;;;8.23;6.67;;;29.40;95.30;;;;;;5051423;28;20431;-54
2021/07/14 12:34:35;;;;;;;6.10;5.60;;;29.40;95.00;;;;;;5051510;28;20943;-54
2021/07/14 12:37:04;;;;;;;9.80;6.90;;;29.30;94.80;;;;;;5051301;28;20947;-54
2021/07/14 12:39:32;;;;;;;7.00;6.30;;;29.20;94.80;;;;;;5050885;28;20443;-54
2021/07/14 12:42:02;;;;;;;6.90;6.20;;;29.20;94.90;;;;;;5051323;28;20489;-54
2021/07/14 12:44:29;;;;;;;6.90;6.20;;;29.00;95.20;;;;;;5051428;28;20522;-54
2021/07/14 12:46:56;;;;;;;12.83;6.90;;;28.90;95.20;;;;;;5050670;28;20958;-54
2021/07/14 12:49:24;;;;;;;7.40;6.70;;;28.80;95.50;;;;;;5050867;28;20423;-54
2021/07/14 12:52:01;;;;;;;8.77;7.33;;;28.80;95.80;;;;;;5050540;28;20799;-54